createdAt,value
2023-01-30T00:03:51.148Z,-2
2023-01-30T00:09:25.814Z,-2
2023-01-30T00:15:19.193Z,-2.1
2023-01-30T00:20:34.375Z,-2.3
2023-01-30T00:26:14.444Z,-2.4
2023-01-30T00:31:46.932Z,-2.5
2023-01-30T00:37:13.202Z,-2.6
2023-01-30T00:42:57.208Z,-2.8
2023-01-30T00:48:37.511Z,-2.9
2023-01-30T00:53:54.403Z,-2.8
2023-01-30T00:59:39.786Z,-2.8
2023-01-30T01:05:14.524Z,-2.9
2023-01-30T01:10:39.549Z,-2.9
2023-01-30T01:16:01.502Z,-2.9
2023-01-30T01:21:24.443Z,-2.9
2023-01-30T01:27:17.083Z,-3.5
2023-01-30T01:32:44.132Z,-3.2
2023-01-30T01:38:10.915Z,-3.1
2023-01-30T01:43:41.749Z,-3.2
2023-01-30T01:49:23.722Z,-3.4
2023-01-30T01:54:45.269Z,-3.5
2023-01-30T02:00:33.511Z,-3.5
2023-01-30T02:06:08.716Z,-3.8
2023-01-30T02:11:21.669Z,-3.5
2023-01-30T02:17:01.586Z,-3.5
2023-01-30T02:22:20.409Z,-3.2
2023-01-30T02:28:04.753Z,-2.9
2023-01-30T02:33:39.078Z,-3
2023-01-30T02:39:22.037Z,-3
2023-01-30T02:44:33.361Z,-3.1
2023-01-30T02:50:10.641Z,-3.2
2023-01-30T02:55:52.514Z,-3.5
2023-01-30T03:01:10.082Z,-3.6
2023-01-30T03:07:04.607Z,-3.4
2023-01-30T03:12:28.577Z,-3.4
2023-01-30T03:17:49.790Z,-3.3
2023-01-30T03:23:39.673Z,-3.3
2023-01-30T03:28:56.555Z,-3.3
2023-01-30T03:34:37.149Z,-3.3
2023-01-30T03:40:05.898Z,-3.3
2023-01-30T03:45:31.403Z,-3.4
2023-01-30T03:51:01.894Z,-3.5
2023-01-30T03:56:37.579Z,-3.4
2023-01-30T04:02:18.840Z,-3.4
2023-01-30T04:07:56.837Z,-3.4
2023-01-30T04:13:33.789Z,-3.4
2023-01-30T04:18:53.889Z,-3.5
2023-01-30T04:24:28.935Z,-3.4
2023-01-30T04:29:49.973Z,-3.7
2023-01-30T04:35:29.581Z,-3.8
2023-01-30T04:41:01.101Z,-3.7
2023-01-30T04:46:39.428Z,-3.7
2023-01-30T04:52:17.847Z,-3.9
2023-01-30T04:57:41.654Z,-3.9
2023-01-30T05:03:15.303Z,-4.2
2023-01-30T05:08:46.940Z,-3.9
2023-01-30T05:14:25.202Z,-3.7
2023-01-30T05:30:59.120Z,-3.8
2023-01-30T05:36:27.221Z,-3.9
2023-01-30T05:41:53.723Z,-4
2023-01-30T05:47:50.515Z,-4.1
2023-01-30T05:53:13.640Z,-4.1
2023-01-30T05:58:43.432Z,-4.1
2023-01-30T06:04:07.238Z,-3.8
2023-01-30T06:09:45.092Z,-3.8
2023-01-30T06:15:23.361Z,-3.6
2023-01-30T06:20:39.312Z,-3.5
2023-01-30T06:26:27.067Z,-3.7
2023-01-30T06:31:47.485Z,-3.8
2023-01-30T06:37:45.130Z,-4
2023-01-30T06:42:48.743Z,-4.1
2023-01-30T06:48:27.024Z,-4
2023-01-30T06:54:17.775Z,-3.9
2023-01-30T06:59:31.775Z,-4.1
2023-01-30T07:05:25.577Z,-4.1
2023-01-30T07:10:31.996Z,-3.9
2023-01-30T07:16:25.709Z,-3.9
2023-01-30T07:21:45.303Z,-3.8
2023-01-30T07:27:12.584Z,-3.9
2023-01-30T07:32:51.203Z,-3.9
2023-01-30T07:38:39.517Z,-3.8
2023-01-30T07:44:06.677Z,-3.6
2023-01-30T07:49:29.181Z,-3.7
2023-01-30T07:55:07.006Z,-3.8
2023-01-30T08:00:36.952Z,-3.4
2023-01-30T08:05:59.971Z,-2.2
2023-01-30T08:11:47.342Z,-2.4
2023-01-30T08:17:07.036Z,-2.4
2023-01-30T08:22:40.654Z,-2.6
2023-01-30T08:28:10.718Z,-2.4
2023-01-30T08:34:07.428Z,-1
2023-01-30T08:39:24.523Z,-1.1
2023-01-30T08:44:49.431Z,-1.1
2023-01-30T08:50:25.407Z,-1.2
2023-01-30T08:56:00.818Z,-1
2023-01-30T09:01:37.323Z,-1.3
2023-01-30T09:07:03.828Z,-0.3
2023-01-30T09:13:00.488Z,-0.2
2023-01-30T09:18:32.416Z,0.5
2023-01-30T09:23:53.314Z,0.7
2023-01-30T09:29:25.182Z,0.4
2023-01-30T09:35:04.215Z,0.7
2023-01-30T09:40:44.875Z,0.6
2023-01-30T09:46:01.002Z,0
2023-01-30T09:51:38.361Z,0.9
2023-01-30T09:57:22.520Z,0.2
2023-01-30T10:02:50.096Z,0.4
2023-01-30T10:08:17.835Z,1.2
2023-01-30T10:13:59.170Z,1.3
2023-01-30T10:19:35.108Z,1.5
2023-01-30T10:25:03.039Z,1.7
2023-01-30T10:30:41.895Z,1.4
2023-01-30T10:36:17.105Z,1.5
2023-01-30T10:41:42.790Z,1.2
2023-01-30T10:47:22.923Z,1.3
2023-01-30T10:53:02.217Z,1.2
2023-01-30T10:58:29.882Z,1.3
2023-01-30T11:04:14.269Z,1.6
2023-01-30T11:09:35.233Z,1.8
2023-01-30T11:15:15.714Z,2.3
2023-01-30T11:20:48.013Z,2.3
2023-01-30T11:26:27.571Z,1.9
2023-01-30T11:32:07.856Z,1.8
2023-01-30T11:37:21.305Z,2
2023-01-30T11:43:05.893Z,1.8
2023-01-30T11:49:01.629Z,1.8
2023-01-30T11:53:59.678Z,2
2023-01-30T11:59:49.166Z,2.2
2023-01-30T12:05:33.995Z,2.2
2023-01-30T12:11:03.743Z,2.7
2023-01-30T12:16:32.648Z,2.3
2023-01-30T12:21:57.107Z,3.1
2023-01-30T12:27:27.547Z,2.8
2023-01-30T12:33:19.892Z,2.7
2023-01-30T12:38:53.946Z,2.6
2023-01-30T12:44:11.992Z,3.3
2023-01-30T12:49:46.629Z,3.4
2023-01-30T12:55:38.296Z,3.1
2023-01-30T13:01:04.005Z,2.9
2023-01-30T13:06:25.477Z,2.9
2023-01-30T13:12:02.628Z,3
2023-01-30T13:17:35.133Z,3.3
2023-01-30T13:23:14.601Z,3
2023-01-30T13:28:58.715Z,3.2
2023-01-30T13:34:21.260Z,3.5
2023-01-30T13:40:10.046Z,3.6
2023-01-30T13:45:30.763Z,3.7
2023-01-30T13:51:13.929Z,3.5
2023-01-30T13:56:41.123Z,3.8
2023-01-30T14:02:22.798Z,3.4
2023-01-30T14:08:05.468Z,3.4
2023-01-30T14:13:31.307Z,3.3
2023-01-30T14:19:06.367Z,3.3
2023-01-30T14:24:40.416Z,3.2
2023-01-30T14:30:13.996Z,3.1
2023-01-30T14:35:46.642Z,3.1
2023-01-30T14:41:09.236Z,3.2
2023-01-30T14:47:32.544Z,3.2
2023-01-30T14:52:15.573Z,3.3
2023-01-30T14:57:59.205Z,3.3
2023-01-30T15:03:35.998Z,3.3
2023-01-30T15:09:01.686Z,3.4
2023-01-30T15:14:52.951Z,3.4
2023-01-30T15:20:02.106Z,3.3
2023-01-30T15:25:52.617Z,3.3
2023-01-30T15:31:21.367Z,3.2
2023-01-30T15:36:49.846Z,3.3
2023-01-30T15:47:51.037Z,3.3
2023-01-30T15:53:40.157Z,3.2
2023-01-30T15:59:20.643Z,3.2
2023-01-30T16:04:42.721Z,3.3
2023-01-30T16:10:08.898Z,3.3
2023-01-30T16:15:49.446Z,3.3
2023-01-30T16:21:25.943Z,3.3
2023-01-30T16:26:50.453Z,3.3
2023-01-30T16:32:38.755Z,3.2
2023-01-30T16:38:10.282Z,3.2
2023-01-30T16:43:27.433Z,3.1
2023-01-30T16:49:17.211Z,3.1
2023-01-30T16:54:43.229Z,2.7
2023-01-30T17:00:12.366Z,2.6
2023-01-30T17:05:44.899Z,2.8
2023-01-30T17:11:29.656Z,2.8
2023-01-30T17:16:42.370Z,2.9
2023-01-30T17:22:20.602Z,3.1
2023-01-30T17:27:49.503Z,3.1
2023-01-30T17:33:20.230Z,3
2023-01-30T17:39:19.330Z,2.9
2023-01-30T17:44:32.472Z,2.8
2023-01-30T17:50:06.588Z,2.5
2023-01-30T17:55:46.033Z,2.5
2023-01-30T18:01:05.127Z,2.4
2023-01-30T18:06:38.113Z,2.5
2023-01-30T18:12:21.334Z,2.3
2023-01-30T18:18:06.997Z,2.1
2023-01-30T18:23:33.578Z,2.1
2023-01-30T18:28:55.456Z,2.1
2023-01-30T18:34:22.233Z,2
2023-01-30T18:39:56.856Z,2
2023-01-30T18:45:43.888Z,2
2023-01-30T18:51:25.589Z,1.9
2023-01-30T18:56:49.912Z,1.9
2023-01-30T19:02:25.691Z,2
2023-01-30T19:08:03.482Z,2.1
2023-01-30T19:13:21.767Z,2.1
2023-01-30T19:18:53.301Z,2.1
2023-01-30T19:24:48.002Z,1.5
2023-01-30T19:30:03.504Z,1.3
2023-01-30T19:35:31.463Z,1.5
2023-01-30T19:41:09.854Z,1.6
2023-01-30T19:46:54.144Z,1.6
2023-01-30T19:52:18.712Z,1.6
2023-01-30T19:57:49.880Z,1.7
2023-01-30T20:03:25.314Z,1.4
2023-01-30T20:09:12.811Z,1.1
2023-01-30T20:14:19.508Z,1.8
2023-01-30T20:19:54.525Z,1.7
2023-01-30T20:25:48.596Z,1.8
2023-01-30T20:31:18.947Z,1.6
2023-01-30T20:36:43.204Z,1.6
2023-01-30T20:42:13.732Z,1.6
2023-01-30T20:47:37.194Z,1.5
2023-01-30T20:53:14.784Z,1.2
2023-01-30T20:58:58.090Z,0.9
2023-01-30T21:04:18.564Z,0.8
2023-01-30T21:09:47.176Z,1.3
2023-01-30T21:15:45.105Z,1.4
2023-01-30T21:20:52.982Z,1.4
2023-01-30T21:26:49.621Z,1.3
2023-01-30T21:32:15.967Z,1.2
2023-01-30T21:37:49.906Z,1.3
2023-01-30T21:43:23.229Z,1.3
2023-01-30T21:48:40.064Z,1.2
2023-01-30T21:54:34.696Z,1
2023-01-30T22:00:00.712Z,1
2023-01-30T22:05:40.135Z,1
2023-01-30T22:11:08.919Z,0.9
2023-01-30T22:16:32.396Z,1
2023-01-30T22:22:20.159Z,0.8
2023-01-30T22:27:51.727Z,0.7
2023-01-30T22:33:22.242Z,0.6
2023-01-30T22:38:56.211Z,0.6
2023-01-30T22:44:12.715Z,0.6
2023-01-30T22:49:53.660Z,0.6
2023-01-30T22:55:37.128Z,0.7
2023-01-30T23:00:58.888Z,0.7
2023-01-30T23:06:46.151Z,0.8
2023-01-30T23:12:09.888Z,0.9
2023-01-30T23:17:40.178Z,0.7
2023-01-30T23:22:56.933Z,0.7
2023-01-30T23:28:35.714Z,0.6
2023-01-30T23:34:07.969Z,0.5
2023-01-30T23:39:59.664Z,0.5
2023-01-30T23:45:30.271Z,0.7
2023-01-30T23:50:53.334Z,0.6
2023-01-30T23:56:26.274Z,0.5
